伊丹で友情フライト!

LUXURY FLIGHT

080-7560-1817

羽田空港本店: 所在地: 東京都大田区羽田空港3-3-2    セントレア店: 所在地: 愛知県常滑市セントレア1-1      HICityファイター店: 所在地: 東京都大田区羽田空港1-1-4
           第1旅客ターミナル5階                  FLIGHT OF DREAMS FLIGHT PARK                 HANEDA INNOVATION CITY ZONE-J 2-5
      営業時間: 10:00~20:00 定休日: 年中無休         営業時間: 10:00~20:00 定休日: 年中無休             営業時間: 10:00~20:00 定休日: 年中無休
      電話番号: 080-7560-1817                  電話番号: 080-4945-5666                     電話番号: 03-5579-7980

lv

伊丹で友情フライト!

STAFF BLOG

2020/09/15 伊丹で友情フライト!

中部より、おはようございまーーーすっっ!!

 

RJGG 150030Z 33008KT 9999 FEW030 BKN/// 24/16 Q1013 NOSIG

今朝は蒸し暑さはおやすみで、ちょっぴり秋の涼しさ、訪れを感じます!

 

本日ご紹介させていただくのは、

先週末、大阪から遊びに来てくださった、

Bさまご一行!飛行機大好きな、仲良しお兄さん4人組

 

フライトプランはやっぱり、中部→伊丹でしょと

地元琵琶湖の上空からの絶景に、うちはあの辺だーーーーーと大盛り上がり

 

最初のキャプテンは、巡航中FDを切り、ローデータにチャレンジ!

慎重かつ細かな操作!

ストレート&レベルも、アプローチ・ランディングも決めてくれました!

 

お次のキャプテンのフライトプランはもちろん、、、

伊丹中部の折り返し便!

そして時刻は夕方に〜

 

ピッチ!バンク!ピッチ!バンク!と良いテンポで積極的なコントロール!

787の慣性も考えての操縦!さすがです!!

37ed2f7a-5232-49d4-b36c-b88719b0519f

 

体験終了後も、目の前のディスプレイやレバーに、

全員が興味シンシンっのシシンシンシンっっ

aba50934-65dc-48f3-b6d4-6ec4f1c837e4

 

やっぱりいくつになっても、少年の好奇心をお持ちであること、

そして、それを共有できる仲間との絆、

本当に素敵ですね〜羨ましいですね!!

 

ご来店くださいまして、誠にありがとうございました。

次回も、皆さまのその好奇心、友情、絆を高める深めるフライトを、

お楽しみいただければ幸いです。

 

いつもブログをお読みくださり、本当にありがとうございます。

「感謝」

TOP